Time,TemperatureF,DewpointF,PressureIn,WindDirection,WindDirectionDegrees,WindSpeedMPH,WindSpeedGustMPH,Humidity,HourlyPrecipIn,Conditions,Clouds,dailyrainin,SolarRadiationWatts/m^2,SoftwareType,DateUTC
2013-12-29 00:02:00,25.7,16.3,30.33,ESE,121,2.0,3.0,67,0.00,,,0.00,0,LWC V2.00 B727,2013-12-29 07:02:00,
2013-12-29 00:07:00,25.6,16.2,30.33,ESE,121,3.0,4.0,67,0.00,,,0.00,0,LWC V2.00 B727,2013-12-29 07:07:00,
2013-12-29 00:12:00,25.6,16.2,30.33,ESE,121,0.0,0.0,67,0.00,,,0.00,0,LWC V2.00 B727,2013-12-29 07:12:00,
2013-12-29 00:17:00,25.6,15.8,30.34,ESE,121,0.0,0.0,66,0.00,,,0.00,0,LWC V2.00 B727,2013-12-29 07:17:00,
2013-12-29 00:22:00,25.6,16.2,30.34,ESE,121,0.0,0.0,67,0.00,,,0.00,0,LWC V2.00 B727,2013-12-29 07:22:00,
2013-12-29 00:27:00,25.5,16.1,30.34,ESE,121,1.0,2.0,67,0.00,,,0.00,0,LWC V2.00 B727,2013-12-29 07:27:00,
2013-12-29 00:32:00,25.4,16.0,30.34,SE,128,8.0,8.0,67,0.00,,,0.00,0,LWC V2.00 B727,2013-12-29 07:32:00,
2013-12-29 00:36:00,25.4,16.3,30.34,SE,146,3.0,6.0,68,0.00,,,0.00,0,LWC V2.00 B727,2013-12-29 07:36:00,
2013-12-29 00:41:00,25.5,16.1,30.34,SE,138,2.0,6.0,67,0.00,,,0.00,0,LWC V2.00 B727,2013-12-29 07:41:00,
2013-12-29 00:46:00,25.6,16.2,30.34,SE,134,2.0,5.0,67,0.00,,,0.00,0,LWC V2.00 B727,2013-12-29 07:46:00,
2013-12-29 00:51:00,25.7,16.6,30.33,SE,128,2.0,3.0,68,0.00,,,0.00,0,LWC V2.00 B727,2013-12-29 07:51:00,
2013-12-29 00:57:00,25.8,17.1,30.33,ESE,118,1.0,4.0,69,0.00,,,0.00,0,LWC V2.00 B727,2013-12-29 07:57:00,
2013-12-29 01:02:00,25.9,17.2,30.33,ESE,121,4.0,5.0,69,0.00,,,0.00,0,LWC V2.00 B727,2013-12-29 08:02:00,
2013-12-29 01:07:00,26.0,17.2,30.33,ESE,123,3.0,4.0,69,0.00,,,0.00,0,LWC V2.00 B727,2013-12-29 08:07:00,
2013-12-29 01:12:00,26.2,17.1,30.33,ESE,123,2.0,3.0,68,0.00,,,0.00,0,LWC V2.00 B727,2013-12-29 08:12:00,
2013-12-29 01:17:00,26.2,17.1,30.32,SE,133,4.0,5.0,68,0.00,,,0.00,0,LWC V2.00 B727,2013-12-29 08:17:00,
2013-12-29 01:22:00,26.3,17.2,30.32,SE,135,3.0,4.0,68,0.00,,,0.00,0,LWC V2.00 B727,2013-12-29 08:22:00,
2013-12-29 01:27:00,26.5,17.0,30.32,SE,136,2.0,3.0,67,0.00,,,0.00,0,LWC V2.00 B727,2013-12-29 08:27:00,
2013-12-29 01:32:00,26.6,16.8,30.32,SE,133,1.0,5.0,66,0.00,,,0.00,0,LWC V2.00 B727,2013-12-29 08:32:00,
2013-12-29 01:37:00,26.7,16.9,30.31,SE,130,1.0,2.0,66,0.00,,,0.00,0,LWC V2.00 B727,2013-12-29 08:37:00,
2013-12-29 01:42:00,26.7,17.2,30.31,SE,128,3.0,3.0,67,0.00,,,0.00,0,LWC V2.00 B727,2013-12-29 08:42:00,
2013-12-29 01:47:00,26.7,17.2,30.31,SE,128,1.0,3.0,67,0.00,,,0.00,0,LWC V2.00 B727,2013-12-29 08:47:00,
2013-12-29 01:52:00,26.6,17.1,30.31,SE,127,2.0,3.0,67,0.00,,,0.00,0,LWC V2.00 B727,2013-12-29 08:52:00,
2013-12-29 01:57:00,26.6,17.1,30.31,SE,127,2.0,2.0,67,0.00,,,0.00,0,LWC V2.00 B727,2013-12-29 08:57:00,
2013-12-29 02:02:00,26.6,17.1,30.31,SE,127,0.0,0.0,67,0.00,,,0.00,0,LWC V2.00 B727,2013-12-29 09:02:00,
2013-12-29 02:07:00,26.5,17.0,30.32,SE,126,0.0,0.0,67,0.00,,,0.00,0,LWC V2.00 B727,2013-12-29 09:07:00,
2013-12-29 02:12:00,26.5,16.7,30.32,SE,126,0.0,0.0,66,0.00,,,0.00,0,LWC V2.00 B727,2013-12-29 09:12:00,
2013-12-29 02:17:00,26.3,16.5,30.32,SE,127,0.0,0.0,66,0.00,,,0.00,0,LWC V2.00 B727,2013-12-29 09:17:00,
2013-12-29 02:22:00,26.2,16.4,30.32,SE,126,0.0,0.0,66,0.00,,,0.00,0,LWC V2.00 B727,2013-12-29 09:22:00,
2013-12-29 02:27:00,25.9,16.1,30.32,SE,126,0.0,0.0,66,0.00,,,0.00,0,LWC V2.00 B727,2013-12-29 09:27:00,
2013-12-29 02:32:00,25.7,15.9,30.32,SE,127,0.0,0.0,66,0.00,,,0.00,0,LWC V2.00 B727,2013-12-29 09:32:00,
2013-12-29 02:37:00,25.4,15.7,30.32,SE,127,0.0,0.0,66,0.00,,,0.00,0,LWC V2.00 B727,2013-12-29 09:37:00,
2013-12-29 02:42:00,25.2,15.8,30.32,SE,126,0.0,0.0,67,0.00,,,0.00,0,LWC V2.00 B727,2013-12-29 09:42:00,
2013-12-29 02:47:00,24.8,15.8,30.33,SE,127,0.0,1.0,68,0.00,,,0.00,0,LWC V2.00 B727,2013-12-29 09:47:00,
2013-12-29 02:52:00,24.6,15.9,30.33,SE,127,1.0,1.0,69,0.00,,,0.00,0,LWC V2.00 B727,2013-12-29 09:52:00,
2013-12-29 02:57:00,24.4,16.0,30.33,SE,127,1.0,3.0,70,0.00,,,0.00,0,LWC V2.00 B727,2013-12-29 09:57:00,
2013-12-29 03:02:00,24.3,16.3,30.33,SE,126,1.0,2.0,71,0.00,,,0.00,0,LWC V2.00 B727,2013-12-29 10:02:00,
2013-12-29 03:07:00,24.4,16.4,30.33,SE,127,0.0,3.0,71,0.00,,,0.00,0,LWC V2.00 B727,2013-12-29 10:07:00,
2013-12-29 03:12:00,24.5,16.1,30.33,SE,127,0.0,2.0,70,0.00,,,0.00,0,LWC V2.00 B727,2013-12-29 10:12:00,
2013-12-29 03:17:00,24.7,16.3,30.33,SE,126,0.0,3.0,70,0.00,,,0.00,0,LWC V2.00 B727,2013-12-29 10:17:00,
2013-12-29 03:22:00,24.9,16.5,30.33,SE,126,0.0,2.0,70,0.00,,,0.00,0,LWC V2.00 B727,2013-12-29 10:22:00,
2013-12-29 03:27:00,25.2,16.8,30.33,SE,127,2.0,2.0,70,0.00,,,0.00,0,LWC V2.00 B727,2013-12-29 10:27:00,
2013-12-29 03:32:00,25.4,17.0,30.33,SE,127,2.0,3.0,70,0.00,,,0.00,0,LWC V2.00 B727,2013-12-29 10:32:00,
2013-12-29 03:37:00,25.7,17.0,30.33,SE,126,2.0,3.0,69,0.00,,,0.00,0,LWC V2.00 B727,2013-12-29 10:37:00,
2013-12-29 03:42:00,25.9,17.2,30.33,SE,127,0.0,0.0,69,0.00,,,0.00,0,LWC V2.00 B727,2013-12-29 10:42:00,
2013-12-29 03:47:00,26.0,17.2,30.33,SE,127,0.0,2.0,69,0.00,,,0.00,0,LWC V2.00 B727,2013-12-29 10:47:00,
2013-12-29 03:52:00,26.1,17.3,30.33,SE,126,0.0,0.0,69,0.00,,,0.00,0,LWC V2.00 B727,2013-12-29 10:52:00,
2013-12-29 03:57:00,26.2,17.8,30.33,SE,127,1.0,2.0,70,0.00,,,0.00,0,LWC V2.00 B727,2013-12-29 10:57:00,
2013-12-29 04:02:00,26.3,17.5,30.33,SE,127,0.0,0.0,69,0.00,,,0.00,0,LWC V2.00 B727,2013-12-29 11:02:00,
2013-12-29 04:07:00,26.3,17.5,30.34,SE,126,0.0,0.0,69,0.00,,,0.00,0,LWC V2.00 B727,2013-12-29 11:07:00,
2013-12-29 04:12:00,26.3,17.5,30.34,SE,126,0.0,1.0,69,0.00,,,0.00,0,LWC V2.00 B727,2013-12-29 11:12:00,
2013-12-29 04:17:00,26.4,18.0,30.33,SE,127,0.0,0.0,70,0.00,,,0.00,0,LWC V2.00 B727,2013-12-29 11:17:00,
2013-12-29 04:22:00,26.4,18.0,30.34,SE,127,0.0,0.0,70,0.00,,,0.00,0,LWC V2.00 B727,2013-12-29 11:22:00,
2013-12-29 04:27:00,26.5,18.4,30.33,SE,126,0.0,0.0,71,0.00,,,0.00,0,LWC V2.00 B727,2013-12-29 11:27:00,
2013-12-29 04:32:00,26.5,18.7,30.33,SE,127,0.0,0.0,72,0.00,,,0.00,0,LWC V2.00 B727,2013-12-29 11:32:00,
2013-12-29 04:37:00,26.5,18.4,30.34,SE,127,1.0,2.0,71,0.00,,,0.00,0,LWC V2.00 B727,2013-12-29 11:37:00,
2013-12-29 04:43:00,26.5,18.4,30.34,SE,126,0.0,0.0,71,0.00,,,0.00,0,LWC V2.00 B727,2013-12-29 11:43:00,
2013-12-29 04:48:00,26.5,18.4,30.34,SE,127,0.0,0.0,71,0.00,,,0.00,0,LWC V2.00 B727,2013-12-29 11:48:00,
2013-12-29 04:53:00,26.4,18.0,30.34,SE,127,0.0,0.0,70,0.00,,,0.00,0,LWC V2.00 B727,2013-12-29 11:53:00,
2013-12-29 04:58:00,26.4,18.3,30.34,SE,127,2.0,3.0,71,0.00,,,0.00,0,LWC V2.00 B727,2013-12-29 11:58:00,
2013-12-29 05:03:00,26.4,18.0,30.34,SE,126,0.0,0.0,70,0.00,,,0.00,0,LWC V2.00 B727,2013-12-29 12:03:00,
2013-12-29 05:08:00,26.4,18.3,30.35,SE,127,0.0,2.0,71,0.00,,,0.00,0,LWC V2.00 B727,2013-12-29 12:08:00,
2013-12-29 05:13:00,26.5,18.4,30.35,SE,127,0.0,0.0,71,0.00,,,0.00,0,LWC V2.00 B727,2013-12-29 12:13:00,
2013-12-29 05:18:00,26.5,18.1,30.35,SE,127,0.0,2.0,70,0.00,,,0.00,0,LWC V2.00 B727,2013-12-29 12:18:00,
2013-12-29 05:23:00,26.6,18.2,30.35,SE,127,2.0,4.0,70,0.00,,,0.00,0,LWC V2.00 B727,2013-12-29 12:23:00,
2013-12-29 05:28:00,26.7,18.6,30.35,SE,126,0.0,0.0,71,0.00,,,0.00,0,LWC V2.00 B727,2013-12-29 12:28:00,
2013-12-29 05:33:00,26.8,19.0,30.35,SE,127,0.0,0.0,72,0.00,,,0.00,0,LWC V2.00 B727,2013-12-29 12:33:00,
2013-12-29 05:38:00,26.9,19.7,30.36,SE,127,0.0,0.0,74,0.00,,,0.00,0,LWC V2.00 B727,2013-12-29 12:38:00,
2013-12-29 05:43:00,27.0,20.5,30.36,SE,126,3.0,3.0,76,0.00,,,0.00,0,LWC V2.00 B727,2013-12-29 12:43:00,
2013-12-29 05:48:00,27.2,21.0,30.36,West,269,2.0,4.0,77,0.00,,,0.00,0,LWC V2.00 B727,2013-12-29 12:48:00,
2013-12-29 05:53:00,27.2,21.0,30.36,WNW,290,1.0,3.0,77,0.00,,,0.00,0,LWC V2.00 B727,2013-12-29 12:53:00,
2013-12-29 05:58:00,27.2,21.3,30.36,WNW,294,1.0,4.0,78,0.00,,,0.00,0,LWC V2.00 B727,2013-12-29 12:58:00,
2013-12-29 06:03:00,27.1,21.2,30.36,WNW,294,2.0,2.0,78,0.00,,,0.00,0,LWC V2.00 B727,2013-12-29 13:03:00,
2013-12-29 06:08:00,27.1,21.2,30.36,WNW,294,0.0,1.0,78,0.00,,,0.00,0,LWC V2.00 B727,2013-12-29 13:08:00,
2013-12-29 06:13:00,27.0,21.1,30.37,WNW,294,1.0,2.0,78,0.00,,,0.00,0,LWC V2.00 B727,2013-12-29 13:13:00,
2013-12-29 06:18:00,26.9,21.3,30.37,WNW,294,1.0,2.0,79,0.00,,,0.00,0,LWC V2.00 B727,2013-12-29 13:18:00,
2013-12-29 06:23:00,26.8,21.5,30.37,WNW,294,0.0,0.0,80,0.00,,,0.00,0,LWC V2.00 B727,2013-12-29 13:23:00,
2013-12-29 06:28:00,26.7,21.4,30.37,WNW,294,0.0,0.0,80,0.00,,,0.00,0,LWC V2.00 B727,2013-12-29 13:28:00,
2013-12-29 06:33:00,26.7,21.7,30.37,WNW,294,0.0,0.0,81,0.00,,,0.00,0,LWC V2.00 B727,2013-12-29 13:33:00,
2013-12-29 06:38:00,26.6,21.6,30.38,WNW,294,0.0,0.0,81,0.00,,,0.00,0,LWC V2.00 B727,2013-12-29 13:38:00,
2013-12-29 06:43:00,26.6,21.6,30.38,WNW,294,0.0,0.0,81,0.00,,,0.00,0,LWC V2.00 B727,2013-12-29 13:43:00,
2013-12-29 06:48:00,26.6,21.6,30.38,WNW,294,0.0,0.0,81,0.00,,,0.00,0,LWC V2.00 B727,2013-12-29 13:48:00,
2013-12-29 06:53:00,26.6,21.9,30.39,WNW,294,0.0,0.0,82,0.00,,,0.00,0,LWC V2.00 B727,2013-12-29 13:53:00,
2013-12-29 06:58:00,26.6,21.9,30.39,WNW,294,0.0,0.0,82,0.00,,,0.00,0,LWC V2.00 B727,2013-12-29 13:58:00,
2013-12-29 07:03:00,26.7,22.0,30.39,WNW,294,1.0,2.0,82,0.00,,,0.00,0,LWC V2.00 B727,2013-12-29 14:03:00,
2013-12-29 07:08:00,26.7,22.0,30.40,WNW,294,0.0,2.0,82,0.00,,,0.00,0,LWC V2.00 B727,2013-12-29 14:08:00,
2013-12-29 07:13:00,26.7,22.0,30.40,WNW,294,2.0,3.0,82,0.00,,,0.00,0,LWC V2.00 B727,2013-12-29 14:13:00,
2013-12-29 07:18:00,26.7,22.2,30.40,WNW,290,3.0,3.0,83,0.00,,,0.00,0,LWC V2.00 B727,2013-12-29 14:18:00,
2013-12-29 07:23:00,26.7,22.2,30.40,WNW,289,1.0,2.0,83,0.00,,,0.00,0,LWC V2.00 B727,2013-12-29 14:23:00,
2013-12-29 07:28:00,26.8,22.3,30.40,WNW,288,1.0,2.0,83,0.00,,,0.00,5,LWC V2.00 B727,2013-12-29 14:28:00,
2013-12-29 07:33:00,26.8,22.3,30.41,WNW,288,2.0,3.0,83,0.00,,,0.00,7,LWC V2.00 B727,2013-12-29 14:33:00,
2013-12-29 07:38:00,26.8,22.3,30.41,WNW,288,2.0,2.0,83,0.00,,,0.00,11,LWC V2.00 B727,2013-12-29 14:38:00,
2013-12-29 07:43:00,26.9,22.7,30.41,WNW,288,1.0,3.0,84,0.00,,,0.00,14,LWC V2.00 B727,2013-12-29 14:43:00,
2013-12-29 07:48:00,26.9,22.7,30.41,SSW,202,2.0,3.0,84,0.00,,,0.00,18,LWC V2.00 B727,2013-12-29 14:48:00,
2013-12-29 07:53:00,26.9,22.7,30.41,SSW,202,0.0,3.0,84,0.00,,,0.00,23,LWC V2.00 B727,2013-12-29 14:53:00,
2013-12-29 07:58:00,26.9,22.7,30.41,SSW,202,0.0,0.0,84,0.00,,,0.00,37,LWC V2.00 B727,2013-12-29 14:58:00,
2013-12-29 08:03:00,27.0,22.8,30.41,SSW,202,1.0,2.0,84,0.00,,,0.00,49,LWC V2.00 B727,2013-12-29 15:03:00,
2013-12-29 08:08:00,27.1,22.9,30.41,SSW,202,0.0,3.0,84,0.00,,,0.00,53,LWC V2.00 B727,2013-12-29 15:08:00,
2013-12-29 08:13:00,27.1,22.9,30.42,SSW,202,0.0,0.0,84,0.00,,,0.00,53,LWC V2.00 B727,2013-12-29 15:13:00,
2013-12-29 08:18:00,27.2,22.7,30.42,SSW,202,0.0,0.0,83,0.00,,,0.00,46,LWC V2.00 B727,2013-12-29 15:18:00,
2013-12-29 08:23:00,27.3,23.1,30.42,SSW,202,0.0,0.0,84,0.00,,,0.00,47,LWC V2.00 B727,2013-12-29 15:23:00,
2013-12-29 08:28:00,27.4,23.2,30.42,SSW,202,0.0,0.0,84,0.00,,,0.00,33,LWC V2.00 B727,2013-12-29 15:28:00,
2013-12-29 08:33:00,27.5,23.0,30.42,SSW,202,0.0,0.0,83,0.00,,,0.00,35,LWC V2.00 B727,2013-12-29 15:33:00,
2013-12-29 08:38:00,27.5,23.0,30.43,SSW,207,3.0,3.0,83,0.00,,,0.00,33,LWC V2.00 B727,2013-12-29 15:38:00,
2013-12-29 08:43:00,27.5,22.7,30.43,West,271,3.0,3.0,82,0.00,,,0.00,40,LWC V2.00 B727,2013-12-29 15:43:00,
2013-12-29 08:48:00,27.4,21.8,30.44,West,271,2.0,2.0,79,0.00,,,0.00,54,LWC V2.00 B727,2013-12-29 15:48:00,
2013-12-29 08:53:00,27.4,21.5,30.44,West,271,0.0,1.0,78,0.00,,,0.00,65,LWC V2.00 B727,2013-12-29 15:53:00,
2013-12-29 08:58:00,27.5,21.3,30.44,West,275,1.0,2.0,77,0.00,,,0.00,63,LWC V2.00 B727,2013-12-29 15:58:00,
2013-12-29 09:03:00,27.5,20.9,30.45,WNW,296,5.0,5.0,76,0.00,,,0.00,93,LWC V2.00 B727,2013-12-29 16:03:00,
2013-12-29 09:08:00,27.5,20.9,30.45,NW,312,2.0,3.0,76,0.00,,,0.00,98,LWC V2.00 B727,2013-12-29 16:08:00,
2013-12-29 09:13:00,27.5,20.6,30.45,NW,310,2.0,4.0,75,0.00,,,0.00,130,LWC V2.00 B727,2013-12-29 16:13:00,
2013-12-29 09:18:00,27.5,20.6,30.45,NW,307,2.0,2.0,75,0.00,,,0.00,165,LWC V2.00 B727,2013-12-29 16:18:00,
2013-12-29 09:23:00,27.6,20.1,30.45,WNW,298,2.0,6.0,73,0.00,,,0.00,153,LWC V2.00 B727,2013-12-29 16:23:00,
2013-12-29 09:28:00,27.7,20.2,30.46,West,271,1.0,4.0,73,0.00,,,0.00,125,LWC V2.00 B727,2013-12-29 16:28:00,
2013-12-29 09:33:00,27.9,20.7,30.46,WSW,250,0.0,2.0,74,0.00,,,0.00,132,LWC V2.00 B727,2013-12-29 16:33:00,
2013-12-29 09:38:00,28.1,20.6,30.46,West,276,2.0,4.0,73,0.00,,,0.00,118,LWC V2.00 B727,2013-12-29 16:38:00,
2013-12-29 09:43:00,28.3,20.8,30.46,SSW,200,1.0,3.0,73,0.00,,,0.00,149,LWC V2.00 B727,2013-12-29 16:43:00,
2013-12-29 09:48:00,28.5,20.6,30.47,WSW,246,0.0,4.0,72,0.00,,,0.00,163,LWC V2.00 B727,2013-12-29 16:48:00,
2013-12-29 09:53:00,28.7,20.5,30.47,WSW,242,0.0,4.0,71,0.00,,,0.00,158,LWC V2.00 B727,2013-12-29 16:53:00,
2013-12-29 09:58:00,28.9,20.7,30.47,West,261,1.0,2.0,71,0.00,,,0.00,163,LWC V2.00 B727,2013-12-29 16:58:00,
2013-12-29 10:03:00,29.1,20.9,30.47,SSW,213,1.0,4.0,71,0.00,,,0.00,185,LWC V2.00 B727,2013-12-29 17:03:00,
2013-12-29 10:08:00,29.3,21.1,30.47,SSW,211,1.0,4.0,71,0.00,,,0.00,128,LWC V2.00 B727,2013-12-29 17:08:00,
2013-12-29 10:13:00,29.4,21.5,30.47,WSW,238,2.0,4.0,72,0.00,,,0.00,134,LWC V2.00 B727,2013-12-29 17:13:00,
2013-12-29 10:18:00,29.5,21.6,30.47,SW,236,4.0,4.0,72,0.00,,,0.00,141,LWC V2.00 B727,2013-12-29 17:18:00,
2013-12-29 10:23:00,29.6,21.7,30.47,WSW,238,0.0,6.0,72,0.00,,,0.00,130,LWC V2.00 B727,2013-12-29 17:23:00,
2013-12-29 10:28:00,29.6,21.7,30.47,WSW,239,0.0,2.0,72,0.00,,,0.00,109,LWC V2.00 B727,2013-12-29 17:28:00,
2013-12-29 10:33:00,29.6,21.7,30.47,WNW,300,3.0,5.0,72,0.00,,,0.00,98,LWC V2.00 B727,2013-12-29 17:33:00,
2013-12-29 10:38:00,29.4,21.8,30.47,WNW,284,0.0,2.0,73,0.00,,,0.00,104,LWC V2.00 B727,2013-12-29 17:38:00,
2013-12-29 10:43:00,29.2,21.6,30.47,WSW,254,1.0,3.0,73,0.00,,,0.00,146,LWC V2.00 B727,2013-12-29 17:43:00,
2013-12-29 10:48:00,29.3,21.7,30.47,SSW,199,4.0,5.0,73,0.00,,,0.00,149,LWC V2.00 B727,2013-12-29 17:48:00,
2013-12-29 10:53:00,29.3,22.1,30.47,SSW,207,1.0,5.0,74,0.00,,,0.00,135,LWC V2.00 B727,2013-12-29 17:53:00,
2013-12-29 10:58:00,29.3,21.7,30.47,West,261,1.0,5.0,73,0.00,,,0.00,132,LWC V2.00 B727,2013-12-29 17:58:00,
2013-12-29 11:03:00,29.3,21.7,30.47,West,265,1.0,4.0,73,0.00,,,0.00,139,LWC V2.00 B727,2013-12-29 18:03:00,
2013-12-29 11:08:00,29.2,21.6,30.47,West,262,0.0,6.0,73,0.00,,,0.00,113,LWC V2.00 B727,2013-12-29 18:08:00,
2013-12-29 11:13:00,29.1,21.5,30.48,WNW,291,1.0,3.0,73,0.00,,,0.00,118,LWC V2.00 B727,2013-12-29 18:13:00,
2013-12-29 11:18:00,29.0,21.8,30.48,West,267,3.0,3.0,74,0.00,,,0.00,142,LWC V2.00 B727,2013-12-29 18:18:00,
2013-12-29 11:23:00,29.0,22.1,30.48,WNW,298,6.0,7.0,75,0.00,,,0.00,192,LWC V2.00 B727,2013-12-29 18:23:00,
2013-12-29 11:28:00,28.8,22.2,30.48,West,273,6.0,10.0,76,0.00,,,0.00,190,LWC V2.00 B727,2013-12-29 18:28:00,
2013-12-29 11:33:00,28.4,22.4,30.48,WNW,296,6.0,8.0,78,0.00,,,0.00,199,LWC V2.00 B727,2013-12-29 18:33:00,
2013-12-29 11:38:00,28.1,22.4,30.48,WNW,291,4.0,7.0,79,0.00,,,0.00,207,LWC V2.00 B727,2013-12-29 18:38:00,
2013-12-29 11:43:00,27.9,22.5,30.48,WNW,289,0.0,6.0,80,0.00,,,0.00,158,LWC V2.00 B727,2013-12-29 18:43:00,
2013-12-29 11:48:00,27.9,22.8,30.47,WNW,292,2.0,4.0,81,0.00,,,0.00,139,LWC V2.00 B727,2013-12-29 18:48:00,
2013-12-29 11:53:00,27.9,22.8,30.47,WNW,291,0.0,0.0,81,0.00,,,0.00,163,LWC V2.00 B727,2013-12-29 18:53:00,
2013-12-29 11:58:00,28.0,23.2,30.47,WNW,298,4.0,4.0,82,0.00,,,0.00,190,LWC V2.00 B727,2013-12-29 18:58:00,
2013-12-29 12:03:00,28.0,23.2,30.47,WNW,296,4.0,5.0,82,0.00,,,0.00,260,LWC V2.00 B727,2013-12-29 19:03:00,
2013-12-29 12:08:00,28.1,23.3,30.46,WNW,291,3.0,3.0,82,0.00,,,0.00,297,LWC V2.00 B727,2013-12-29 19:08:00,
2013-12-29 12:13:00,28.4,23.6,30.46,WNW,293,1.0,4.0,82,0.00,,,0.00,244,LWC V2.00 B727,2013-12-29 19:13:00,
2013-12-29 12:18:00,28.5,23.4,30.46,West,275,1.0,2.0,81,0.00,,,0.00,149,LWC V2.00 B727,2013-12-29 19:18:00,
2013-12-29 12:23:00,28.5,22.8,30.46,WNW,291,3.0,6.0,79,0.00,,,0.00,301,LWC V2.00 B727,2013-12-29 19:23:00,
2013-12-29 12:28:00,28.7,23.3,30.46,WNW,288,5.0,5.0,80,0.00,,,0.00,283,LWC V2.00 B727,2013-12-29 19:28:00,
2013-12-29 12:33:00,29.0,23.3,30.46,WSW,246,5.0,6.0,79,0.00,,,0.00,352,LWC V2.00 B727,2013-12-29 19:33:00,
2013-12-29 12:38:00,29.3,23.6,30.46,SW,225,2.0,5.0,79,0.00,,,0.00,211,LWC V2.00 B727,2013-12-29 19:38:00,
2013-12-29 12:43:00,29.4,23.4,30.46,WNW,296,2.0,7.0,78,0.00,,,0.00,221,LWC V2.00 B727,2013-12-29 19:43:00,
2013-12-29 12:48:00,29.4,23.1,30.46,SW,225,5.0,7.0,77,0.00,,,0.00,236,LWC V2.00 B727,2013-12-29 19:48:00,
2013-12-29 12:53:00,29.4,23.1,30.46,WSW,255,4.0,7.0,77,0.00,,,0.00,236,LWC V2.00 B727,2013-12-29 19:53:00,
2013-12-29 12:58:00,29.3,23.0,30.46,WNW,290,2.0,6.0,77,0.00,,,0.00,241,LWC V2.00 B727,2013-12-29 19:58:00,
2013-12-29 13:03:00,29.3,23.3,30.46,SW,225,4.0,5.0,78,0.00,,,0.00,239,LWC V2.00 B727,2013-12-29 20:03:00,
2013-12-29 13:08:00,29.4,23.1,30.46,SSW,213,5.0,5.0,77,0.00,,,0.00,186,LWC V2.00 B727,2013-12-29 20:08:00,
2013-12-29 13:13:00,29.4,22.8,30.47,West,263,3.0,5.0,76,0.00,,,0.00,204,LWC V2.00 B727,2013-12-29 20:13:00,
2013-12-29 13:18:00,29.4,22.8,30.46,WNW,296,9.0,9.0,76,0.00,,,0.00,262,LWC V2.00 B727,2013-12-29 20:18:00,
2013-12-29 13:23:00,29.2,22.6,30.47,West,265,5.0,5.0,76,0.00,,,0.00,186,LWC V2.00 B727,2013-12-29 20:23:00,
2013-12-29 13:28:00,29.1,22.5,30.47,WSW,240,3.0,4.0,76,0.00,,,0.00,165,LWC V2.00 B727,2013-12-29 20:28:00,
2013-12-29 13:33:00,29.0,22.4,30.47,WNW,292,3.0,4.0,76,0.00,,,0.00,137,LWC V2.00 B727,2013-12-29 20:33:00,
2013-12-29 13:38:00,28.9,22.0,30.47,WNW,292,2.0,7.0,75,0.00,,,0.00,132,LWC V2.00 B727,2013-12-29 20:38:00,
2013-12-29 13:43:00,28.8,21.9,30.47,WNW,292,2.0,5.0,75,0.00,,,0.00,172,LWC V2.00 B727,2013-12-29 20:43:00,
2013-12-29 13:48:00,28.8,22.2,30.47,NW,307,0.0,5.0,76,0.00,,,0.00,260,LWC V2.00 B727,2013-12-29 20:48:00,
2013-12-29 13:53:00,29.2,22.9,30.46,WNW,292,1.0,3.0,77,0.00,,,0.00,260,LWC V2.00 B727,2013-12-29 20:53:00,
2013-12-29 13:58:00,29.6,23.0,30.47,WNW,292,0.0,0.0,76,0.00,,,0.00,234,LWC V2.00 B727,2013-12-29 20:58:00,
2013-12-29 14:03:00,30.0,23.4,30.47,SSW,211,2.0,4.0,76,0.00,,,0.00,274,LWC V2.00 B727,2013-12-29 21:03:00,
2013-12-29 14:08:00,30.5,23.2,30.47,South,191,0.0,4.0,74,0.00,,,0.00,272,LWC V2.00 B727,2013-12-29 21:08:00,
2013-12-29 14:13:00,31.0,23.7,30.47,South,185,4.0,4.0,74,0.00,,,0.00,513,LWC V2.00 B727,2013-12-29 21:13:00,
2013-12-29 14:18:00,31.2,23.2,30.47,SSE,166,1.0,4.0,72,0.00,,,0.00,199,LWC V2.00 B727,2013-12-29 21:18:00,
2013-12-29 14:23:00,31.2,22.9,30.47,South,190,4.0,7.0,71,0.00,,,0.00,200,LWC V2.00 B727,2013-12-29 21:23:00,
2013-12-29 14:28:00,31.2,23.2,30.47,South,172,1.0,2.0,72,0.00,,,0.00,214,LWC V2.00 B727,2013-12-29 21:28:00,
2013-12-29 14:33:00,31.2,23.2,30.47,SW,216,3.0,5.0,72,0.00,,,0.00,171,LWC V2.00 B727,2013-12-29 21:33:00,
2013-12-29 14:38:00,31.2,22.9,30.47,South,191,2.0,6.0,71,0.00,,,0.00,186,LWC V2.00 B727,2013-12-29 21:38:00,
2013-12-29 14:43:00,31.2,22.6,30.47,SW,224,0.0,2.0,70,0.00,,,0.00,204,LWC V2.00 B727,2013-12-29 21:43:00,
2013-12-29 14:48:00,31.2,22.6,30.47,SW,223,2.0,2.0,70,0.00,,,0.00,127,LWC V2.00 B727,2013-12-29 21:48:00,
2013-12-29 14:53:00,31.1,22.8,30.47,West,281,3.0,9.0,71,0.00,,,0.00,151,LWC V2.00 B727,2013-12-29 21:53:00,
2013-12-29 14:58:00,31.0,22.4,30.47,West,281,4.0,4.0,70,0.00,,,0.00,132,LWC V2.00 B727,2013-12-29 21:58:00,
2013-12-29 15:03:00,30.9,22.3,30.47,West,278,2.0,6.0,70,0.00,,,0.00,135,LWC V2.00 B727,2013-12-29 22:03:00,
2013-12-29 15:08:00,31.0,22.7,30.47,WSW,241,1.0,5.0,71,0.00,,,0.00,158,LWC V2.00 B727,2013-12-29 22:08:00,
2013-12-29 15:13:00,31.0,22.4,30.48,SW,233,1.0,4.0,70,0.00,,,0.00,98,LWC V2.00 B727,2013-12-29 22:13:00,
2013-12-29 15:18:00,31.0,22.4,30.48,NW,307,3.0,4.0,70,0.00,,,0.00,65,LWC V2.00 B727,2013-12-29 22:18:00,
2013-12-29 15:23:00,30.8,22.2,30.49,West,274,0.0,3.0,70,0.00,,,0.00,72,LWC V2.00 B727,2013-12-29 22:23:00,
2013-12-29 15:28:00,30.7,22.1,30.49,WNW,294,4.0,4.0,70,0.00,,,0.00,86,LWC V2.00 B727,2013-12-29 22:28:00,
2013-12-29 15:33:00,30.5,21.9,30.49,West,280,2.0,5.0,70,0.00,,,0.00,97,LWC V2.00 B727,2013-12-29 22:33:00,
2013-12-29 15:38:00,30.5,21.9,30.49,WSW,256,2.0,3.0,70,0.00,,,0.00,74,LWC V2.00 B727,2013-12-29 22:38:00,
2013-12-29 15:43:00,30.5,21.9,30.49,WSW,248,0.0,6.0,70,0.00,,,0.00,47,LWC V2.00 B727,2013-12-29 22:43:00,
2013-12-29 15:48:00,30.5,21.9,30.49,WNW,287,1.0,4.0,70,0.00,,,0.00,35,LWC V2.00 B727,2013-12-29 22:48:00,
2013-12-29 15:53:00,30.3,21.7,30.49,West,276,0.0,2.0,70,0.00,,,0.00,39,LWC V2.00 B727,2013-12-29 22:53:00,
2013-12-29 15:58:00,30.2,21.6,30.49,SSW,207,3.0,4.0,70,0.00,,,0.00,63,LWC V2.00 B727,2013-12-29 22:58:00,
2013-12-29 16:03:00,30.2,21.6,30.49,SSW,207,0.0,1.0,70,0.00,,,0.00,79,LWC V2.00 B727,2013-12-29 23:03:00,
2013-12-29 16:08:00,30.2,21.6,30.49,SSW,206,1.0,1.0,70,0.00,,,0.00,33,LWC V2.00 B727,2013-12-29 23:08:00,
2013-12-29 16:13:00,30.1,21.2,30.49,WSW,249,2.0,4.0,69,0.00,,,0.00,40,LWC V2.00 B727,2013-12-29 23:13:00,
2013-12-29 16:18:00,29.9,21.0,30.50,WSW,237,2.0,4.0,69,0.00,,,0.00,39,LWC V2.00 B727,2013-12-29 23:18:00,
2013-12-29 16:23:00,29.8,20.9,30.50,WSW,237,0.0,1.0,69,0.00,,,0.00,23,LWC V2.00 B727,2013-12-29 23:23:00,
2013-12-29 16:28:00,29.6,20.7,30.50,WSW,244,4.0,5.0,69,0.00,,,0.00,16,LWC V2.00 B727,2013-12-29 23:28:00,
2013-12-29 16:33:00,29.4,20.8,30.50,WSW,242,0.0,1.0,70,0.00,,,0.00,12,LWC V2.00 B727,2013-12-29 23:33:00,
2013-12-29 16:38:00,29.2,20.7,30.50,WSW,244,0.0,1.0,70,0.00,,,0.00,11,LWC V2.00 B727,2013-12-29 23:38:00,
2013-12-29 16:43:00,28.9,20.4,30.51,WSW,244,0.0,1.0,70,0.00,,,0.00,9,LWC V2.00 B727,2013-12-29 23:43:00,
2013-12-29 16:48:00,28.6,20.4,30.51,West,277,1.0,4.0,71,0.00,,,0.00,7,LWC V2.00 B727,2013-12-29 23:48:00,
2013-12-29 16:53:00,28.3,20.1,30.51,West,279,0.0,2.0,71,0.00,,,0.00,5,LWC V2.00 B727,2013-12-29 23:53:00,
2013-12-29 16:58:00,28.1,20.3,30.51,West,278,0.0,2.0,72,0.00,,,0.00,0,LWC V2.00 B727,2013-12-29 23:58:00,
2013-12-29 17:03:00,27.9,20.1,30.51,West,277,2.0,2.0,72,0.00,,,0.00,0,LWC V2.00 B727,2013-12-30 00:03:00,
2013-12-29 17:08:00,27.7,19.9,30.52,West,277,0.0,0.0,72,0.00,,,0.00,0,LWC V2.00 B727,2013-12-30 00:08:00,
2013-12-29 17:13:00,27.5,20.0,30.52,West,277,0.0,1.0,73,0.00,,,0.00,0,LWC V2.00 B727,2013-12-30 00:13:00,
2013-12-29 17:18:00,27.4,19.9,30.52,West,277,0.0,2.0,73,0.00,,,0.00,0,LWC V2.00 B727,2013-12-30 00:18:00,
2013-12-29 17:23:00,27.2,19.7,30.53,West,277,0.0,2.0,73,0.00,,,0.00,0,LWC V2.00 B727,2013-12-30 00:23:00,
2013-12-29 17:28:00,27.0,19.8,30.53,West,277,1.0,2.0,74,0.00,,,0.00,0,LWC V2.00 B727,2013-12-30 00:28:00,
2013-12-29 17:33:00,26.8,19.6,30.53,West,277,0.0,0.0,74,0.00,,,0.00,0,LWC V2.00 B727,2013-12-30 00:33:00,
2013-12-29 17:38:00,26.6,19.5,30.53,West,277,0.0,1.0,74,0.00,,,0.00,0,LWC V2.00 B727,2013-12-30 00:38:00,
2013-12-29 17:43:00,26.4,19.3,30.54,West,277,0.0,0.0,74,0.00,,,0.00,0,LWC V2.00 B727,2013-12-30 00:43:00,
2013-12-29 17:48:00,26.1,19.0,30.54,West,277,2.0,2.0,74,0.00,,,0.00,0,LWC V2.00 B727,2013-12-30 00:48:00,
2013-12-29 17:53:00,25.7,18.9,30.54,West,277,0.0,0.0,75,0.00,,,0.00,0,LWC V2.00 B727,2013-12-30 00:53:00,
2013-12-29 17:58:00,25.3,18.5,30.54,SSW,200,3.0,3.0,75,0.00,,,0.00,0,LWC V2.00 B727,2013-12-30 00:58:00,
2013-12-29 18:03:00,24.9,18.1,30.54,SSW,195,0.0,1.0,75,0.00,,,0.00,0,LWC V2.00 B727,2013-12-30 01:03:00,
2013-12-29 18:08:00,24.6,17.8,30.55,SSW,195,2.0,2.0,75,0.00,,,0.00,0,LWC V2.00 B727,2013-12-30 01:08:00,
2013-12-29 18:13:00,24.2,17.4,30.55,SSW,195,2.0,3.0,75,0.00,,,0.00,0,LWC V2.00 B727,2013-12-30 01:13:00,
2013-12-29 18:18:00,23.8,17.4,30.55,SSW,194,3.0,4.0,76,0.00,,,0.00,0,LWC V2.00 B727,2013-12-30 01:18:00,
2013-12-29 18:23:00,23.4,17.3,30.55,SSW,194,2.0,4.0,77,0.00,,,0.00,0,LWC V2.00 B727,2013-12-30 01:23:00,
2013-12-29 18:28:00,23.1,17.0,30.55,SSW,193,2.0,4.0,77,0.00,,,0.00,0,LWC V2.00 B727,2013-12-30 01:28:00,
2013-12-29 18:33:00,22.8,16.7,30.56,SSW,192,3.0,3.0,77,0.00,,,0.00,0,LWC V2.00 B727,2013-12-30 01:33:00,
2013-12-29 18:35:00,22.7,16.6,30.56,South,191,2.0,4.0,77,0.00,,,0.00,0,LWC V2.00 B727,2013-12-30 01:35:00,
2013-12-29 18:40:00,22.4,16.6,30.56,South,191,2.0,3.0,78,0.00,,,0.00,0,LWC V2.00 B727,2013-12-30 01:40:00,
2013-12-29 18:45:00,22.1,16.0,30.56,SSE,151,4.0,5.0,77,0.00,,,0.00,0,LWC V2.00 B727,2013-12-30 01:45:00,
2013-12-29 18:50:00,21.7,15.9,30.56,SE,136,3.0,4.0,78,0.00,,,0.00,0,LWC V2.00 B727,2013-12-30 01:50:00,
2013-12-29 18:55:00,21.5,15.7,30.57,SE,137,2.0,5.0,78,0.00,,,0.00,0,LWC V2.00 B727,2013-12-30 01:55:00,
2013-12-29 19:00:00,21.3,15.8,30.57,SE,136,2.0,5.0,79,0.00,,,0.00,0,LWC V2.00 B727,2013-12-30 02:00:00,
2013-12-29 19:05:00,21.2,16.0,30.57,SE,134,2.0,3.0,80,0.00,,,0.00,0,LWC V2.00 B727,2013-12-30 02:05:00,
2013-12-29 19:10:00,21.1,15.9,30.57,SE,134,2.0,2.0,80,0.00,,,0.00,0,LWC V2.00 B727,2013-12-30 02:10:00,
2013-12-29 19:15:00,21.0,15.8,30.58,SE,133,1.0,3.0,80,0.00,,,0.00,0,LWC V2.00 B727,2013-12-30 02:15:00,
2013-12-29 19:20:00,21.0,15.8,30.58,SE,134,0.0,2.0,80,0.00,,,0.00,0,LWC V2.00 B727,2013-12-30 02:20:00,
2013-12-29 19:25:00,20.9,15.7,30.59,SE,134,3.0,3.0,80,0.00,,,0.00,0,LWC V2.00 B727,2013-12-30 02:25:00,
2013-12-29 19:30:00,20.9,15.7,30.59,SE,133,4.0,4.0,80,0.00,,,0.00,0,LWC V2.00 B727,2013-12-30 02:30:00,
2013-12-29 19:35:00,20.9,16.0,30.59,SE,133,3.0,4.0,81,0.00,,,0.00,0,LWC V2.00 B727,2013-12-30 02:35:00,
2013-12-29 19:40:00,21.0,16.1,30.59,SE,134,4.0,4.0,81,0.00,,,0.00,0,LWC V2.00 B727,2013-12-30 02:40:00,
2013-12-29 19:45:00,21.1,16.2,30.59,SE,134,2.0,3.0,81,0.00,,,0.00,0,LWC V2.00 B727,2013-12-30 02:45:00,
2013-12-29 19:50:00,21.2,16.3,30.59,SE,133,3.0,4.0,81,0.00,,,0.00,0,LWC V2.00 B727,2013-12-30 02:50:00,
2013-12-29 19:55:00,21.3,16.4,30.59,SE,134,3.0,4.0,81,0.00,,,0.00,0,LWC V2.00 B727,2013-12-30 02:55:00,
2013-12-29 20:00:00,21.5,16.6,30.59,SE,134,2.0,3.0,81,0.00,,,0.00,0,LWC V2.00 B727,2013-12-30 03:00:00,
2013-12-29 20:05:00,21.6,16.7,30.59,SE,134,1.0,2.0,81,0.00,,,0.00,0,LWC V2.00 B727,2013-12-30 03:05:00,
2013-12-29 20:10:00,21.8,16.9,30.60,SE,133,2.0,3.0,81,0.00,,,0.00,0,LWC V2.00 B727,2013-12-30 03:10:00,
2013-12-29 20:15:00,22.0,17.1,30.60,SE,134,2.0,4.0,81,0.00,,,0.00,0,LWC V2.00 B727,2013-12-30 03:15:00,
2013-12-29 20:20:00,22.1,17.2,30.60,SE,134,1.0,3.0,81,0.00,,,0.00,0,LWC V2.00 B727,2013-12-30 03:20:00,
2013-12-29 20:25:00,22.2,17.3,30.60,SE,134,3.0,3.0,81,0.00,,,0.00,0,LWC V2.00 B727,2013-12-30 03:25:00,
2013-12-29 20:30:00,22.5,17.6,30.60,SE,134,2.0,3.0,81,0.00,,,0.00,0,LWC V2.00 B727,2013-12-30 03:30:00,
2013-12-29 20:35:00,22.6,17.7,30.60,SE,134,2.0,2.0,81,0.00,,,0.00,0,LWC V2.00 B727,2013-12-30 03:35:00,
2013-12-29 20:40:00,22.7,17.8,30.60,SE,133,3.0,4.0,81,0.00,,,0.00,0,LWC V2.00 B727,2013-12-30 03:40:00,
2013-12-29 20:45:00,22.7,17.5,30.60,SE,134,1.0,3.0,80,0.00,,,0.00,0,LWC V2.00 B727,2013-12-30 03:45:00,
2013-12-29 20:50:00,22.7,17.5,30.60,SE,134,1.0,3.0,80,0.00,,,0.00,0,LWC V2.00 B727,2013-12-30 03:50:00,
2013-12-29 20:55:00,22.6,17.1,30.59,SE,134,2.0,2.0,79,0.00,,,0.00,0,LWC V2.00 B727,2013-12-30 03:55:00,
2013-12-29 21:00:00,22.5,17.0,30.60,SE,134,0.0,2.0,79,0.00,,,0.00,0,LWC V2.00 B727,2013-12-30 04:00:00,
2013-12-29 21:05:00,22.3,16.5,30.60,SE,133,2.0,2.0,78,0.00,,,0.00,0,LWC V2.00 B727,2013-12-30 04:05:00,
2013-12-29 21:10:00,22.1,16.6,30.59,SE,134,1.0,2.0,79,0.00,,,0.00,0,LWC V2.00 B727,2013-12-30 04:10:00,
2013-12-29 21:15:00,21.8,16.3,30.59,SE,133,2.0,2.0,79,0.00,,,0.00,0,LWC V2.00 B727,2013-12-30 04:15:00,
2013-12-29 21:20:00,21.7,16.2,30.60,SE,133,0.0,0.0,79,0.00,,,0.00,0,LWC V2.00 B727,2013-12-30 04:20:00,
2013-12-29 21:25:00,21.5,16.0,30.60,SE,134,1.0,3.0,79,0.00,,,0.00,0,LWC V2.00 B727,2013-12-30 04:25:00,
2013-12-29 21:30:00,21.2,16.0,30.59,SE,134,4.0,5.0,80,0.00,,,0.00,0,LWC V2.00 B727,2013-12-30 04:30:00,
2013-12-29 21:35:00,20.9,15.7,30.59,SE,134,2.0,2.0,80,0.00,,,0.00,0,LWC V2.00 B727,2013-12-30 04:35:00,
2013-12-29 21:40:00,20.7,15.5,30.59,SE,134,2.0,3.0,80,0.00,,,0.00,0,LWC V2.00 B727,2013-12-30 04:40:00,
2013-12-29 21:45:00,20.6,15.7,30.59,SE,134,3.0,4.0,81,0.00,,,0.00,0,LWC V2.00 B727,2013-12-30 04:45:00,
2013-12-29 21:50:00,20.5,15.6,30.60,SE,134,2.0,4.0,81,0.00,,,0.00,0,LWC V2.00 B727,2013-12-30 04:50:00,
2013-12-29 21:55:00,20.4,15.5,30.60,SE,134,0.0,2.0,81,0.00,,,0.00,0,LWC V2.00 B727,2013-12-30 04:55:00,
2013-12-29 22:00:00,20.4,15.5,30.60,SE,135,3.0,3.0,81,0.00,,,0.00,0,LWC V2.00 B727,2013-12-30 05:00:00,
2013-12-29 22:01:00,20.3,15.4,30.60,SE,134,2.0,3.0,81,0.00,,,0.00,0,LWC V2.00 B727,2013-12-30 05:01:00,
2013-12-29 22:06:00,20.2,15.3,30.61,SE,134,2.0,3.0,81,0.00,,,0.00,0,LWC V2.00 B727,2013-12-30 05:06:00,
2013-12-29 22:11:00,20.2,15.3,30.62,SE,135,2.0,4.0,81,0.00,,,0.00,0,LWC V2.00 B727,2013-12-30 05:11:00,
2013-12-29 22:16:00,20.0,15.1,30.62,SE,135,3.0,3.0,81,0.00,,,0.00,0,LWC V2.00 B727,2013-12-30 05:16:00,
2013-12-29 22:21:00,19.9,15.0,30.62,SE,134,3.0,4.0,81,0.00,,,0.00,0,LWC V2.00 B727,2013-12-30 05:21:00,
2013-12-29 22:26:00,19.9,15.0,30.62,SE,135,3.0,5.0,81,0.00,,,0.00,0,LWC V2.00 B727,2013-12-30 05:26:00,
2013-12-29 22:31:00,19.8,14.9,30.62,SE,134,3.0,4.0,81,0.00,,,0.00,0,LWC V2.00 B727,2013-12-30 05:31:00,
2013-12-29 22:36:00,19.8,14.9,30.62,SE,134,2.0,4.0,81,0.00,,,0.00,0,LWC V2.00 B727,2013-12-30 05:36:00,
2013-12-29 22:41:00,19.7,15.1,30.63,SE,134,0.0,3.0,82,0.00,,,0.00,0,LWC V2.00 B727,2013-12-30 05:41:00,
2013-12-29 22:46:00,19.7,14.8,30.63,SE,134,0.0,2.0,81,0.00,,,0.00,0,LWC V2.00 B727,2013-12-30 05:46:00,
2013-12-29 22:51:00,19.7,14.8,30.62,SE,134,2.0,3.0,81,0.00,,,0.00,0,LWC V2.00 B727,2013-12-30 05:51:00,
2013-12-29 22:56:00,19.7,14.8,30.62,SE,134,3.0,4.0,81,0.00,,,0.00,0,LWC V2.00 B727,2013-12-30 05:56:00,
2013-12-29 23:01:00,19.5,14.6,30.62,SE,134,3.0,4.0,81,0.00,,,0.00,0,LWC V2.00 B727,2013-12-30 06:01:00,
2013-12-29 23:06:00,19.5,14.6,30.62,SE,135,2.0,4.0,81,0.00,,,0.00,0,LWC V2.00 B727,2013-12-30 06:06:00,
2013-12-29 23:11:00,19.5,14.9,30.63,SE,135,3.0,3.0,82,0.00,,,0.00,0,LWC V2.00 B727,2013-12-30 06:11:00,
2013-12-29 23:16:00,19.5,14.6,30.63,SE,135,0.0,3.0,81,0.00,,,0.00,0,LWC V2.00 B727,2013-12-30 06:16:00,
2013-12-29 23:21:00,19.3,14.2,30.63,SE,135,2.0,2.0,80,0.00,,,0.00,0,LWC V2.00 B727,2013-12-30 06:21:00,
2013-12-29 23:26:00,19.1,14.0,30.63,SE,135,2.0,3.0,80,0.00,,,0.00,0,LWC V2.00 B727,2013-12-30 06:26:00,
2013-12-29 23:31:00,19.0,14.1,30.63,SE,134,1.0,3.0,81,0.00,,,0.00,0,LWC V2.00 B727,2013-12-30 06:31:00,
2013-12-29 23:36:00,19.0,14.1,30.62,SE,134,3.0,4.0,81,0.00,,,0.00,0,LWC V2.00 B727,2013-12-30 06:36:00,
2013-12-29 23:41:00,19.0,14.1,30.62,SE,135,3.0,4.0,81,0.00,,,0.00,0,LWC V2.00 B727,2013-12-30 06:41:00,
2013-12-29 23:46:00,19.1,14.5,30.62,SE,135,0.0,0.0,82,0.00,,,0.00,0,LWC V2.00 B727,2013-12-30 06:46:00,
2013-12-29 23:51:00,19.2,14.6,30.62,SE,135,2.0,3.0,82,0.00,,,0.00,0,LWC V2.00 B727,2013-12-30 06:51:00,
2013-12-29 23:56:00,19.2,14.6,30.62,SE,134,2.0,2.0,82,0.00,,,0.00,0,LWC V2.00 B727,2013-12-30 06:56:00,